Capitol Logistics 2340

Operating for ATN



KRFD
Chicago/Rockford International Airport
Rockford, Illinois
KIAH
George Bush Intcntl/Houston Airport
Houston, Texas

Activity Log

Date Flight Route Aircraft Duration
No Flights Yet

Route Details

Aircraft Information
Group: North America Fleet
Types: B738,B752,B762,B763
Route Data
Demand: H
Distance: 794nm
Duration: 2h 04m
Recm'd Route: PLL MZV IRK EOS MLC CVE GUSHR3
Origin Wx: KRFD 242154Z 08007KT 10SM SCT110 OVC160 18/04 A3015 RMK AO2 SLP209 T01830044
Dest. Wx: KIAH 242153Z 11011KT 10SM FEW014 SCT110 OVC220 25/21 A2972 RMK AO2 SLP065 T02500211
Notes:

Financial History
Total Freight: 0lbs
Average Load: 0lbs/flt
Fuel Used: 0lbs
Avg. Fuel Used: 0lbs/flt
Fuel Expense: $0
Avg. Fuel Expense: $0
Avg. Fuel Cost: $0/lbs
Total Gross Income: $0
Pilot Pay: $0
Total Expenses: $0
Total Revenue: $0
Average Revenue: $0